Katsou — FI9145 — position and weather

sailwx.info

Track history (hours):
 
Tides and Currents Weather Stations Pressure Air Temp Water Temp Dewpoint Dewpoint Depression Visibility Wind Speed Wind Dir Waves Ship Positions

Katsou

Last reported at 2017-Aug-19 09:27 UTC. Time now 2017-Oct-17 20:22 UTC.
Position N 47°43' W 003°35'.
Warning: this ship's position is 59 days out of date.

Length 13 m.

Type: Sailing vessel. MMSI: 227734820.

Date/timePositionNaut miles runAvg speedWind from/ knotsBaromVisibWave heightAir tempDewpointWater temp
2017-Aug-19 09:27N 47°43' W 003°35'3 5.9
2017-Aug-19 09:01N 47°41' W 003°33'2 4.7
2017-Aug-19 08:31N 47°40' W 003°30'3 5.4
2017-Aug-19 08:00N 47°41' W 003°26'3 5.5
2017-Aug-19 07:30N 47°42' W 003°22'2 4.8
2017-Aug-19 07:00N 47°44' W 003°21'1 0.0
2017-Aug-18 15:21N 47°45' W 003°21'0 0.0
2017-Aug-18 15:00N 47°45' W 003°21'0 0.0
2017-Aug-18 10:45N 47°45' W 003°21'0 0.1
2017-Aug-18 10:30N 47°45' W 003°21'0 0.0
2017-Aug-18 10:00N 47°45' W 003°21'0 0.0
2017-Aug-18 09:30N 47°45' W 003°21'0 0.0
2017-Aug-18 09:00N 47°45' W 003°21'0 0.0
2017-Aug-18 08:30N 47°45' W 003°21'0 0.0
2017-Aug-18 08:00N 47°45' W 003°21'0 0.0
2017-Aug-16 10:29N 47°45' W 003°21'0 0.0
2017-Aug-16 10:00N 47°45' W 003°21'0 0.0
2017-Aug-16 09:30N 47°45' W 003°21'0 0.0
2017-Aug-16 08:59N 47°45' W 003°21'0 0.0
2017-Aug-15 23:20N 47°45' W 003°21'0 0.0
2017-Aug-15 23:00N 47°45' W 003°21'0 0.0
2017-Aug-15 22:30N 47°45' W 003°21'0 0.0
2017-Aug-15 22:00N 47°45' W 003°21'0 0.0
2017-Aug-15 21:30N 47°45' W 003°21'0 0.0
2017-Aug-15 20:59N 47°45' W 003°21'0 0.0
2017-Aug-15 20:30N 47°45' W 003°21'0 0.0
2017-Aug-15 20:00N 47°45' W 003°21'0 0.0
2017-Aug-15 19:30N 47°45' W 003°21'0 0.0
2017-Aug-15 19:00N 47°45' W 003°21'0 0.0
2017-Aug-15 18:29N 47°45' W 003°21'0 0.0
2017-Aug-15 18:00N 47°45' W 003°21'0 0.0
2017-Aug-15 16:39N 47°45' W 003°21'0 0.0
2017-Aug-15 16:30N 47°45' W 003°21'1 1.6
2017-Aug-15 16:00N 47°44' W 003°21'3 5.2
2017-Aug-15 15:30N 47°42' W 003°23'3 5.8
2017-Aug-15 15:00N 47°39' W 003°25'1 0.3
2017-Aug-15 12:51N 47°38' W 003°25'0 0.0
2017-Aug-15 11:31N 47°38' W 003°25'0 0.0
2017-Aug-15 11:28N 47°38' W 003°25'1 1.7
2017-Aug-15 11:00N 47°37' W 003°24'3 6.0
2017-Aug-15 10:30N 47°35' W 003°23'3 5.7
2017-Aug-15 10:00N 47°32' W 003°21'3 5.6
2017-Aug-15 09:30N 47°30' W 003°19'2 4.9
2017-Aug-15 09:00N 47°28' W 003°17'3 5.2
2017-Aug-15 08:29N 47°25' W 003°14'3 4.8
2017-Aug-15 07:58N 47°23' W 003°12'2 3.8
2017-Aug-15 07:21N 47°22' W 003°10'1 2.5
2017-Aug-15 06:57N 47°21' W 003°09'  
Track history (hours):
 
Tides and Currents Weather Stations Pressure Air Temp Water Temp Dewpoint Dewpoint Depression Visibility Wind Speed Wind Dir Waves Ship Positions

Katsou

Last reported at 2017-Aug-19 09:27 UTC. Time now 2017-Oct-17 20:22 UTC.
Position N 47°43' W 003°35'.
Warning: this ship's position is 59 days out of date.

Length 13 m.

Type: Sailing vessel. MMSI: 227734820.

Date/timePositionNaut miles runAvg speedWind from/ knotsBaromVisibWave heightAir tempDewpointWater temp
2017-Aug-19 09:27N 47°43' W 003°35'3 5.9
2017-Aug-19 09:01N 47°41' W 003°33'2 4.7
2017-Aug-19 08:31N 47°40' W 003°30'3 5.4
2017-Aug-19 08:00N 47°41' W 003°26'3 5.5
2017-Aug-19 07:30N 47°42' W 003°22'2 4.8
2017-Aug-19 07:00N 47°44' W 003°21'1 0.0
2017-Aug-18 15:21N 47°45' W 003°21'0 0.0
2017-Aug-18 15:00N 47°45' W 003°21'0 0.0
2017-Aug-18 10:45N 47°45' W 003°21'0 0.1
2017-Aug-18 10:30N 47°45' W 003°21'0 0.0
2017-Aug-18 10:00N 47°45' W 003°21'0 0.0
2017-Aug-18 09:30N 47°45' W 003°21'0 0.0
2017-Aug-18 09:00N 47°45' W 003°21'0 0.0
2017-Aug-18 08:30N 47°45' W 003°21'0 0.0
2017-Aug-18 08:00N 47°45' W 003°21'0 0.0
2017-Aug-16 10:29N 47°45' W 003°21'0 0.0
2017-Aug-16 10:00N 47°45' W 003°21'0 0.0
2017-Aug-16 09:30N 47°45' W 003°21'0 0.0
2017-Aug-16 08:59N 47°45' W 003°21'0 0.0
2017-Aug-15 23:20N 47°45' W 003°21'0 0.0
2017-Aug-15 23:00N 47°45' W 003°21'0 0.0
2017-Aug-15 22:30N 47°45' W 003°21'0 0.0
2017-Aug-15 22:00N 47°45' W 003°21'0 0.0
2017-Aug-15 21:30N 47°45' W 003°21'0 0.0
2017-Aug-15 20:59N 47°45' W 003°21'0 0.0
2017-Aug-15 20:30N 47°45' W 003°21'0 0.0
2017-Aug-15 20:00N 47°45' W 003°21'0 0.0
2017-Aug-15 19:30N 47°45' W 003°21'0 0.0
2017-Aug-15 19:00N 47°45' W 003°21'0 0.0
2017-Aug-15 18:29N 47°45' W 003°21'0 0.0
2017-Aug-15 18:00N 47°45' W 003°21'0 0.0
2017-Aug-15 16:39N 47°45' W 003°21'0 0.0
2017-Aug-15 16:30N 47°45' W 003°21'1 1.6
2017-Aug-15 16:00N 47°44' W 003°21'3 5.2
2017-Aug-15 15:30N 47°42' W 003°23'3 5.8
2017-Aug-15 15:00N 47°39' W 003°25'1 0.3
2017-Aug-15 12:51N 47°38' W 003°25'0 0.0
2017-Aug-15 11:31N 47°38' W 003°25'0 0.0
2017-Aug-15 11:28N 47°38' W 003°25'1 1.7
2017-Aug-15 11:00N 47°37' W 003°24'3 6.0
2017-Aug-15 10:30N 47°35' W 003°23'3 5.7
2017-Aug-15 10:00N 47°32' W 003°21'3 5.6
2017-Aug-15 09:30N 47°30' W 003°19'2 4.9
2017-Aug-15 09:00N 47°28' W 003°17'3 5.2
2017-Aug-15 08:29N 47°25' W 003°14'3 4.8
2017-Aug-15 07:58N 47°23' W 003°12'2 3.8
2017-Aug-15 07:21N 47°22' W 003°10'1 2.5
2017-Aug-15 06:57N 47°21' W 003°09'  

Dump ship's entire track history